Time;durP1;ratioP1;P1;durP2;ratioP2;P2;SDS_P1;SDS_P2;PMS_P1;PMS_P2;Temp;Humidity;BMP_temperature;BMP_pressure;BME280_temperature;BME280_humidity;BME280_pressure;Samples;Min_cycle;Max_cycle;Signal;HPM_P1;HPM_P2
2021/10/19 00:01:03;;;;;;;27.40;20.17;;;12.70;99.90;;;;;;5045498;28;20124;-71
2021/10/19 00:03:29;;;;;;;25.67;19.20;;;12.60;99.90;;;;;;5046194;28;20091;-71
2021/10/19 00:05:55;;;;;;;26.27;20.38;;;12.60;99.90;;;;;;5046190;28;20561;-71
2021/10/19 00:08:21;;;;;;;25.50;20.35;;;12.60;99.90;;;;;;5046638;28;20471;-71
2021/10/19 00:10:47;;;;;;;26.77;21.08;;;12.60;99.90;;;;;;5029715;28;20133;-71
2021/10/19 00:13:13;;;;;;;26.05;20.45;;;12.60;99.90;;;;;;5046561;28;20061;-71
2021/10/19 00:15:39;;;;;;;25.25;20.75;;;12.60;99.90;;;;;;5026606;28;20072;-71
2021/10/19 00:18:05;;;;;;;27.50;21.08;;;12.60;99.90;;;;;;5009834;28;20644;-71
2021/10/19 00:20:30;;;;;;;25.77;19.60;;;12.70;99.90;;;;;;5028226;28;20488;-71
2021/10/19 00:22:56;;;;;;;24.58;19.38;;;12.60;99.90;;;;;;5028431;28;20044;-71
2021/10/19 00:25:22;;;;;;;25.10;20.63;;;12.70;99.90;;;;;;5046637;28;20049;-71
2021/10/19 00:27:49;;;;;;;22.83;20.10;;;12.60;99.90;;;;;;4999067;28;20049;-71
2021/10/19 00:30:15;;;;;;;24.75;20.27;;;12.60;99.90;;;;;;5038180;28;20075;-71
2021/10/19 00:32:41;;;;;;;22.83;19.98;;;12.60;99.90;;;;;;5017476;28;20124;-71
2021/10/19 00:35:08;;;;;;;25.15;20.63;;;12.60;99.90;;;;;;5050460;28;20120;-71
2021/10/19 00:37:34;;;;;;;24.63;20.00;;;12.60;99.90;;;;;;5050114;28;20048;-71
2021/10/19 00:40:00;;;;;;;22.45;18.80;;;12.60;99.90;;;;;;5028551;28;20098;-71
2021/10/19 00:42:26;;;;;;;25.33;19.90;;;12.60;99.90;;;;;;5035184;28;20459;-71
2021/10/19 00:44:52;;;;;;;22.23;19.80;;;12.60;99.90;;;;;;5029276;28;20389;-71
2021/10/19 00:47:21;;;;;;;24.88;20.88;;;12.60;99.90;;;;;;5042787;28;20469;-72
2021/10/19 00:49:48;;;;;;;25.20;19.92;;;12.60;99.90;;;;;;5033139;28;20045;-71
2021/10/19 00:52:15;;;;;;;23.60;19.90;;;12.60;99.90;;;;;;5049531;28;20041;-71
2021/10/19 00:54:43;;;;;;;23.25;19.30;;;12.60;99.90;;;;;;5047332;28;20102;-71
2021/10/19 00:57:10;;;;;;;25.38;19.25;;;12.60;99.90;;;;;;5030981;28;20056;-71
2021/10/19 00:59:41;;;;;;;26.42;20.70;;;12.60;99.90;;;;;;5047256;28;20049;-71
2021/10/19 01:02:12;;;;;;;23.67;20.05;;;12.60;99.90;;;;;;5032361;28;20144;-71
2021/10/19 01:04:40;;;;;;;23.27;19.52;;;12.60;99.90;;;;;;5030140;28;20084;-71
2021/10/19 01:07:07;;;;;;;21.83;19.10;;;12.60;99.90;;;;;;5044373;28;20090;-71
2021/10/19 01:09:33;;;;;;;24.20;19.67;;;12.60;99.90;;;;;;5048178;28;20067;-71
2021/10/19 01:11:58;;;;;;;25.25;21.33;;;12.60;99.90;;;;;;5047666;28;20049;-71
2021/10/19 01:14:24;;;;;;;25.20;20.55;;;12.60;99.90;;;;;;5013005;28;20064;-71
2021/10/19 01:16:50;;;;;;;24.13;20.90;;;12.60;99.90;;;;;;5028715;28;20045;-71
2021/10/19 01:19:21;;;;;;;24.42;19.75;;;12.70;99.90;;;;;;5030137;28;20037;-72
2021/10/19 01:21:52;;;;;;;25.90;20.23;;;12.70;99.90;;;;;;5028178;28;20519;-71
2021/10/19 01:24:18;;;;;;;25.40;21.92;;;12.70;99.90;;;;;;5063047;28;20045;-71
2021/10/19 01:26:44;;;;;;;22.85;19.42;;;12.70;99.90;;;;;;5047324;28;20041;-71
2021/10/19 01:29:11;;;;;;;24.10;20.27;;;12.70;99.90;;;;;;5029948;28;20100;-71
2021/10/19 01:31:37;;;;;;;26.35;20.60;;;12.70;99.90;;;;;;5047962;28;20064;-71
2021/10/19 01:34:03;;;;;;;24.20;19.92;;;12.70;99.90;;;;;;5014808;28;20045;-71
2021/10/19 01:36:28;;;;;;;21.88;18.75;;;12.70;99.90;;;;;;5013789;28;20049;-71
2021/10/19 01:38:54;;;;;;;23.65;20.40;;;12.80;99.90;;;;;;5030465;28;20041;-72
2021/10/19 01:41:20;;;;;;;25.02;20.40;;;12.80;99.90;;;;;;5030551;28;20044;-71
2021/10/19 01:43:46;;;;;;;23.55;20.10;;;12.80;99.90;;;;;;5031180;28;20072;-71
2021/10/19 01:46:12;;;;;;;27.40;19.55;;;12.80;99.90;;;;;;5047689;28;20048;-72
2021/10/19 01:48:40;;;;;;;22.17;18.65;;;12.80;99.90;;;;;;5048111;28;20049;-72
2021/10/19 01:51:06;;;;;;;24.33;20.42;;;12.80;99.90;;;;;;5029725;28;20103;-71
2021/10/19 01:53:32;;;;;;;23.35;19.88;;;12.80;99.90;;;;;;5048793;28;20446;-72
2021/10/19 01:55:58;;;;;;;22.35;19.48;;;12.80;99.90;;;;;;5050394;28;20170;-72
2021/10/19 01:58:24;;;;;;;24.27;20.63;;;12.80;99.90;;;;;;5050298;28;20057;-71
2021/10/19 02:00:53;;;;;;;23.95;19.98;;;12.80;99.90;;;;;;5028792;28;20048;-71
2021/10/19 02:03:19;;;;;;;24.73;19.70;;;12.90;99.90;;;;;;5045164;28;20050;-71
2021/10/19 02:05:46;;;;;;;24.33;19.65;;;12.90;99.90;;;;;;5049098;28;20499;-71
2021/10/19 02:08:13;;;;;;;22.73;19.00;;;12.80;99.90;;;;;;5050136;28;20101;-72
2021/10/19 02:10:39;;;;;;;24.73;20.45;;;12.80;99.90;;;;;;5050587;28;20053;-71
2021/10/19 02:13:06;;;;;;;23.45;20.15;;;12.80;99.90;;;;;;5049040;28;20037;-70
2021/10/19 02:15:33;;;;;;;24.67;20.38;;;12.90;99.90;;;;;;5050520;28;20140;-71
2021/10/19 02:17:59;;;;;;;23.02;18.98;;;12.80;99.90;;;;;;5032857;28;20059;-71
2021/10/19 02:20:26;;;;;;;21.73;19.42;;;12.80;99.90;;;;;;5046931;28;20037;-71
2021/10/19 02:22:53;;;;;;;22.08;19.65;;;12.80;99.90;;;;;;5033415;28;20532;-71
2021/10/19 02:25:19;;;;;;;24.80;21.02;;;12.80;99.90;;;;;;5033275;28;20079;-71
2021/10/19 02:27:45;;;;;;;24.15;19.98;;;12.80;99.90;;;;;;5047206;28;20083;-71
2021/10/19 02:30:12;;;;;;;27.33;20.38;;;12.80;99.90;;;;;;5048840;28;20048;-71
2021/10/19 02:32:39;;;;;;;25.38;21.02;;;12.80;99.90;;;;;;5033115;28;20527;-71
2021/10/19 02:35:18;;;;;;;26.85;22.55;;;12.80;99.90;;;;;;5047323;28;20163;-71
2021/10/19 02:37:45;;;;;;;26.08;20.90;;;12.80;99.90;;;;;;5049034;28;21237;-71
2021/10/19 02:40:15;;;;;;;22.83;20.42;;;12.80;99.90;;;;;;5031660;28;20043;-71
2021/10/19 02:42:41;;;;;;;26.35;21.25;;;12.80;99.90;;;;;;5049635;28;20079;-71
2021/10/19 02:45:09;;;;;;;23.55;20.00;;;12.80;99.90;;;;;;5048525;28;20120;-71
2021/10/19 02:47:35;;;;;;;22.83;20.27;;;12.80;99.90;;;;;;5032531;28;20044;-72
2021/10/19 02:50:01;;;;;;;23.85;19.70;;;12.80;99.90;;;;;;5032193;28;20094;-72
2021/10/19 02:52:27;;;;;;;27.08;20.38;;;12.80;99.90;;;;;;5032612;28;20556;-71
2021/10/19 02:54:53;;;;;;;21.52;18.83;;;12.80;99.90;;;;;;5028428;28;20060;-72
2021/10/19 02:57:19;;;;;;;26.80;21.63;;;12.80;99.90;;;;;;5029088;28;20040;-71
2021/10/19 02:59:45;;;;;;;23.83;19.67;;;12.80;99.90;;;;;;5027514;28;20431;-71
2021/10/19 03:02:11;;;;;;;24.15;20.85;;;12.80;99.90;;;;;;5042810;28;20033;-71
2021/10/19 03:04:37;;;;;;;23.45;20.85;;;12.80;99.90;;;;;;5045068;28;20052;-72
2021/10/19 03:07:02;;;;;;;25.20;21.48;;;12.80;99.90;;;;;;4995512;28;20650;-71
2021/10/19 03:09:28;;;;;;;25.08;20.95;;;12.80;99.90;;;;;;5046057;28;20094;-71
2021/10/19 03:11:54;;;;;;;23.13;19.63;;;12.80;99.90;;;;;;5045217;28;20044;-71
2021/10/19 03:14:20;;;;;;;25.23;21.08;;;12.80;99.90;;;;;;5028910;28;20106;-71
2021/10/19 03:16:45;;;;;;;24.50;20.67;;;12.70;99.90;;;;;;5028220;28;20048;-71
2021/10/19 03:19:11;;;;;;;26.48;21.58;;;12.80;99.90;;;;;;5044688;28;20036;-72
2021/10/19 03:21:37;;;;;;;24.65;21.27;;;12.80;99.90;;;;;;5045423;28;20419;-71
2021/10/19 03:24:04;;;;;;;23.48;20.60;;;12.80;99.90;;;;;;5025977;28;20052;-71
2021/10/19 03:26:30;;;;;;;24.85;20.77;;;12.80;99.90;;;;;;5062658;28;20073;-72
2021/10/19 03:28:55;;;;;;;21.75;19.40;;;12.80;99.90;;;;;;5027992;28;20067;-73
2021/10/19 03:31:21;;;;;;;24.17;20.77;;;12.90;99.90;;;;;;5027702;28;20045;-73
2021/10/19 03:33:47;;;;;;;24.75;20.63;;;12.90;99.90;;;;;;5028789;28;20435;-72
2021/10/19 03:36:13;;;;;;;25.17;21.50;;;12.90;99.90;;;;;;5044736;28;20033;-73
2021/10/19 03:38:39;;;;;;;23.33;20.15;;;12.90;99.90;;;;;;5028376;28;20077;-72
2021/10/19 03:41:05;;;;;;;23.63;20.25;;;12.90;99.90;;;;;;5027914;28;20075;-72
2021/10/19 03:43:34;;;;;;;23.48;20.92;;;12.90;99.90;;;;;;5026553;28;20132;-72
2021/10/19 03:46:00;;;;;;;24.88;20.33;;;12.90;99.90;;;;;;5011874;28;20119;-72
2021/10/19 03:48:26;;;;;;;24.05;18.85;;;12.90;99.90;;;;;;5044881;28;20460;-72
2021/10/19 03:50:52;;;;;;;25.20;20.75;;;12.90;99.90;;;;;;5028489;28;20519;-72
2021/10/19 03:53:18;;;;;;;23.83;21.25;;;13.00;99.90;;;;;;5028358;28;20037;-72
2021/10/19 03:55:46;;;;;;;27.40;21.40;;;13.00;99.90;;;;;;5031902;28;20056;-72
2021/10/19 03:58:12;;;;;;;24.00;21.23;;;13.00;99.90;;;;;;5047310;28;20044;-72
2021/10/19 04:00:38;;;;;;;25.75;21.80;;;12.90;99.90;;;;;;5045457;28;20036;-72
2021/10/19 04:03:03;;;;;;;23.63;20.35;;;13.00;99.90;;;;;;5048983;28;20098;-72
2021/10/19 04:05:29;;;;;;;25.55;20.95;;;13.00;99.90;;;;;;5018915;28;20458;-72
2021/10/19 04:07:55;;;;;;;26.67;22.13;;;13.00;99.90;;;;;;5051383;28;20045;-72
2021/10/19 04:10:23;;;;;;;26.42;21.40;;;13.00;99.90;;;;;;5053427;28;20045;-73
2021/10/19 04:12:49;;;;;;;26.77;21.27;;;13.00;99.90;;;;;;5054441;28;20052;-72
2021/10/19 04:15:15;;;;;;;25.25;21.60;;;13.00;99.90;;;;;;5054593;28;20043;-72
2021/10/19 04:17:41;;;;;;;25.75;22.10;;;12.90;99.90;;;;;;5038112;28;20044;-73
2021/10/19 04:20:07;;;;;;;25.90;21.73;;;12.90;99.90;;;;;;5053349;28;20499;-72
2021/10/19 04:22:33;;;;;;;25.00;21.33;;;12.90;99.90;;;;;;5053818;28;20040;-72
2021/10/19 04:24:59;;;;;;;26.13;21.42;;;12.90;99.90;;;;;;5053474;28;20052;-72
2021/10/19 04:27:26;;;;;;;24.30;20.73;;;12.90;99.90;;;;;;5050108;28;20045;-73
2021/10/19 04:29:52;;;;;;;27.77;22.73;;;12.90;99.90;;;;;;5038060;28;20101;-72
2021/10/19 04:32:18;;;;;;;25.25;22.30;;;12.90;99.90;;;;;;5048848;28;20139;-72
2021/10/19 04:34:43;;;;;;;23.90;21.25;;;12.90;99.90;;;;;;5054984;28;20140;-72
2021/10/19 04:37:09;;;;;;;24.65;21.98;;;12.90;99.90;;;;;;5069577;28;20078;-72
2021/10/19 04:39:35;;;;;;;28.85;23.08;;;12.90;99.90;;;;;;5051570;28;20090;-72
2021/10/19 04:42:02;;;;;;;26.63;22.27;;;12.90;99.90;;;;;;5017213;28;20049;-72
2021/10/19 04:44:28;;;;;;;26.48;22.08;;;12.90;99.90;;;;;;5033533;28;20063;-72
2021/10/19 04:46:55;;;;;;;27.42;23.45;;;12.90;99.90;;;;;;5039529;28;20410;-72
2021/10/19 04:49:21;;;;;;;25.08;22.17;;;12.90;99.90;;;;;;5052781;28;20040;-72
2021/10/19 04:51:47;;;;;;;26.85;22.83;;;12.90;99.90;;;;;;5070394;28;20051;-72
2021/10/19 04:54:13;;;;;;;25.80;22.10;;;12.90;99.90;;;;;;5049729;28;20567;-72
2021/10/19 04:56:39;;;;;;;26.88;21.75;;;12.90;99.90;;;;;;5050047;28;20067;-72
2021/10/19 04:59:05;;;;;;;25.08;22.38;;;12.90;99.90;;;;;;5064992;28;20040;-72
2021/10/19 05:01:34;;;;;;;28.77;22.45;;;12.90;99.90;;;;;;5049157;28;20044;-72
2021/10/19 05:04:00;;;;;;;28.13;23.10;;;13.00;99.90;;;;;;5048627;28;20063;-72
2021/10/19 05:06:25;;;;;;;26.58;21.55;;;13.00;99.90;;;;;;5049860;28;20045;-71
2021/10/19 05:08:51;;;;;;;26.95;23.30;;;13.00;99.90;;;;;;5066875;28;20155;-71
2021/10/19 05:11:17;;;;;;;27.50;22.30;;;13.00;99.90;;;;;;5048931;28;20048;-71
2021/10/19 05:13:43;;;;;;;28.42;22.45;;;13.00;99.90;;;;;;5049171;28;20045;-70
2021/10/19 05:16:08;;;;;;;27.08;22.70;;;13.00;99.90;;;;;;5048830;28;20131;-72
2021/10/19 05:18:34;;;;;;;30.90;23.98;;;13.10;99.90;;;;;;5032987;28;20040;-72
2021/10/19 05:21:01;;;;;;;27.02;23.58;;;13.10;99.90;;;;;;5031860;28;20442;-72
2021/10/19 05:23:27;;;;;;;25.33;21.83;;;13.10;99.90;;;;;;5032780;28;20048;-72
2021/10/19 05:25:53;;;;;;;28.17;24.60;;;13.10;99.90;;;;;;5048712;28;20135;-72
2021/10/19 05:28:19;;;;;;;27.02;23.77;;;13.10;99.90;;;;;;5032678;28;20132;-72
2021/10/19 05:30:44;;;;;;;29.52;22.42;;;13.10;99.90;;;;;;5004398;28;20489;-72
2021/10/19 05:33:10;;;;;;;31.10;24.67;;;13.10;99.90;;;;;;5028841;28;20084;-72
2021/10/19 05:35:36;;;;;;;30.10;24.35;;;13.10;99.90;;;;;;5029155;28;20447;-72
2021/10/19 05:38:05;;;;;;;33.08;24.63;;;13.10;99.90;;;;;;5036052;28;20049;-72
2021/10/19 05:40:30;;;;;;;30.98;23.63;;;13.10;99.90;;;;;;5041522;28;20055;-72
2021/10/19 05:42:56;;;;;;;29.27;24.63;;;13.10;99.90;;;;;;5030356;28;20050;-72
2021/10/19 05:45:22;;;;;;;32.92;24.38;;;13.10;99.90;;;;;;5030497;28;20152;-73
2021/10/19 05:47:48;;;;;;;29.20;24.05;;;13.10;99.90;;;;;;4997664;28;20048;-72
2021/10/19 05:50:16;;;;;;;30.92;25.45;;;13.10;99.90;;;;;;5030199;28;20041;-73
2021/10/19 05:52:43;;;;;;;30.63;25.23;;;13.10;99.90;;;;;;5032082;28;20117;-71
2021/10/19 05:55:10;;;;;;;29.77;23.88;;;13.10;99.90;;;;;;5024219;28;20120;-71
2021/10/19 05:57:36;;;;;;;30.35;25.38;;;13.10;99.90;;;;;;5052262;28;20053;-72
2021/10/19 06:00:06;;;;;;;31.17;25.30;;;13.10;99.90;;;;;;5024415;28;20116;-73
2021/10/19 06:02:32;;;;;;;31.20;26.10;;;13.10;99.90;;;;;;5042363;28;20584;-72
2021/10/19 06:05:04;;;;;;;29.23;25.35;;;13.10;99.90;;;;;;5042988;28;20151;-72
2021/10/19 06:07:30;;;;;;;37.22;27.60;;;13.10;99.90;;;;;;5024711;28;20151;-72
2021/10/19 06:09:56;;;;;;;33.65;26.10;;;13.10;99.90;;;;;;5020662;28;20774;-72
2021/10/19 06:12:21;;;;;;;34.17;27.42;;;13.10;99.90;;;;;;5023884;28;20231;-72
2021/10/19 06:14:47;;;;;;;33.90;27.30;;;13.10;99.90;;;;;;5039961;28;20060;-71
2021/10/19 06:17:13;;;;;;;34.42;27.60;;;13.10;99.90;;;;;;5030233;28;20051;-72
2021/10/19 06:19:39;;;;;;;35.08;27.90;;;13.10;99.90;;;;;;5023829;28;20091;-72
2021/10/19 06:22:05;;;;;;;34.60;29.35;;;13.10;99.90;;;;;;5020674;28;20044;-72
2021/10/19 06:24:34;;;;;;;35.78;29.15;;;13.10;99.90;;;;;;5043899;28;20040;-72
2021/10/19 06:27:03;;;;;;;36.10;28.10;;;13.20;99.90;;;;;;5043049;28;20045;-72
2021/10/19 06:29:29;;;;;;;41.95;31.13;;;13.20;99.90;;;;;;5057345;28;20047;-73
2021/10/19 06:31:56;;;;;;;36.53;29.33;;;13.20;99.90;;;;;;5024336;28;20084;-73
2021/10/19 06:34:25;;;;;;;38.55;30.42;;;13.20;99.90;;;;;;5043391;28;20037;-72
2021/10/19 06:36:51;;;;;;;33.38;27.88;;;13.20;99.90;;;;;;5023877;28;20041;-72
2021/10/19 06:39:16;;;;;;;33.78;26.77;;;13.20;99.90;;;;;;5039150;28;20322;-72
2021/10/19 06:41:42;;;;;;;39.63;30.98;;;13.20;99.90;;;;;;5019327;28;20057;-72
2021/10/19 06:44:08;;;;;;;38.75;30.13;;;13.30;99.90;;;;;;5026522;28;20368;-72
2021/10/19 06:46:33;;;;;;;35.65;31.45;;;13.30;99.90;;;;;;5049901;28;20052;-72
2021/10/19 06:48:59;;;;;;;41.35;32.22;;;13.30;99.90;;;;;;5026880;28;20052;-72
2021/10/19 06:51:25;;;;;;;37.55;30.27;;;13.30;99.90;;;;;;5029382;28;20483;-73
2021/10/19 06:53:51;;;;;;;41.40;31.30;;;13.40;99.90;;;;;;5026736;28;20518;-71
2021/10/19 06:56:16;;;;;;;38.90;31.95;;;13.40;99.90;;;;;;5029409;28;20041;-72
2021/10/19 06:58:43;;;;;;;40.38;32.40;;;13.50;99.90;;;;;;5044434;28;20041;-73
2021/10/19 07:01:09;;;;;;;37.20;31.65;;;13.50;99.90;;;;;;5044813;28;20075;-73
2021/10/19 07:03:35;;;;;;;35.88;29.38;;;13.50;99.90;;;;;;5046032;28;20049;-72
2021/10/19 07:06:05;;;;;;;35.00;29.95;;;13.50;99.90;;;;;;5049947;28;20102;-72
2021/10/19 07:08:34;;;;;;;34.65;29.40;;;13.60;99.90;;;;;;5006999;28;20122;-72
2021/10/19 07:11:01;;;;;;;39.05;31.65;;;13.60;99.90;;;;;;5045166;28;20432;-72
2021/10/19 07:13:27;;;;;;;36.60;31.20;;;13.60;99.90;;;;;;5045449;28;20087;-73
2021/10/19 07:15:54;;;;;;;39.13;30.63;;;13.60;99.90;;;;;;5038155;28;20108;-72
2021/10/19 07:18:22;;;;;;;41.78;31.55;;;13.70;99.90;;;;;;5029182;28;20048;-72
2021/10/19 07:20:51;;;;;;;33.63;29.55;;;13.70;99.90;;;;;;5028239;28;20503;-72
2021/10/19 07:23:17;;;;;;;38.10;31.05;;;13.70;99.90;;;;;;5028843;28;20041;-72
2021/10/19 07:25:44;;;;;;;33.40;29.33;;;13.70;99.90;;;;;;5033643;28;20450;-72
2021/10/19 07:28:10;;;;;;;36.70;30.35;;;13.70;99.90;;;;;;5045096;28;20501;-72
2021/10/19 07:30:36;;;;;;;35.30;29.58;;;13.70;99.90;;;;;;5026135;28;20404;-72
2021/10/19 07:33:03;;;;;;;34.47;29.75;;;13.70;99.90;;;;;;5044726;28;20055;-73
2021/10/19 07:35:28;;;;;;;32.10;28.30;;;13.80;99.90;;;;;;5045539;28;20488;-72
2021/10/19 07:37:54;;;;;;;32.45;28.90;;;13.80;99.90;;;;;;5028364;28;20102;-73
2021/10/19 07:40:20;;;;;;;31.38;27.65;;;13.80;99.90;;;;;;5040951;28;20401;-72
2021/10/19 07:42:46;;;;;;;34.53;30.55;;;13.80;99.90;;;;;;5044244;28;20049;-72
2021/10/19 07:45:13;;;;;;;36.60;31.00;;;13.90;99.90;;;;;;5043825;28;20040;-72
2021/10/19 07:47:44;;;;;;;34.95;30.65;;;13.90;99.90;;;;;;5045933;28;20053;-71
2021/10/19 07:50:12;;;;;;;36.88;31.38;;;13.90;99.90;;;;;;5024729;28;20041;-72
2021/10/19 07:52:39;;;;;;;36.30;30.80;;;13.90;99.90;;;;;;5045319;28;20518;-72
2021/10/19 07:55:05;;;;;;;37.45;30.67;;;13.90;99.90;;;;;;5044785;28;20127;-72
2021/10/19 07:57:31;;;;;;;36.92;31.25;;;13.90;99.90;;;;;;5046326;28;20470;-72
2021/10/19 07:59:57;;;;;;;33.03;27.77;;;14.00;99.90;;;;;;5028091;28;20041;-71
2021/10/19 08:02:23;;;;;;;35.45;30.20;;;14.00;99.90;;;;;;5028924;28;20059;-71
2021/10/19 08:04:48;;;;;;;34.78;29.88;;;14.00;99.90;;;;;;5010366;28;20525;-71
2021/10/19 08:07:14;;;;;;;33.30;29.67;;;14.00;99.90;;;;;;5036888;28;20120;-71
2021/10/19 08:09:40;;;;;;;32.78;28.88;;;14.00;99.90;;;;;;5062147;28;20087;-72
2021/10/19 08:12:06;;;;;;;32.75;29.08;;;14.10;99.90;;;;;;5026448;28;20088;-72
2021/10/19 08:14:32;;;;;;;34.22;29.02;;;14.10;99.90;;;;;;5012050;28;20110;-72
2021/10/19 08:16:58;;;;;;;34.22;28.80;;;14.20;99.90;;;;;;5027945;28;20061;-72
2021/10/19 08:19:23;;;;;;;30.38;27.23;;;14.10;99.90;;;;;;4995962;28;20040;-72
2021/10/19 08:21:49;;;;;;;30.05;26.98;;;14.20;99.90;;;;;;5009632;28;20041;-72
2021/10/19 08:24:15;;;;;;;30.35;27.10;;;14.20;99.90;;;;;;5027980;28;20041;-72
2021/10/19 08:26:41;;;;;;;30.17;26.92;;;14.30;99.90;;;;;;5044884;28;20098;-70
2021/10/19 08:29:07;;;;;;;28.65;25.63;;;14.30;99.90;;;;;;5011565;28;20488;-71
2021/10/19 08:31:33;;;;;;;30.27;26.58;;;14.30;99.90;;;;;;5027953;28;20658;-71
2021/10/19 08:33:59;;;;;;;29.55;26.40;;;14.40;99.90;;;;;;5027984;28;20080;-73
2021/10/19 08:36:26;;;;;;;30.02;26.60;;;14.40;99.90;;;;;;5011833;28;20033;-71
2021/10/19 08:38:52;;;;;;;32.92;28.08;;;14.40;99.90;;;;;;5044500;28;20463;-71
2021/10/19 08:41:19;;;;;;;29.95;26.73;;;14.40;99.90;;;;;;5040033;28;20103;-69
2021/10/19 08:43:46;;;;;;;28.50;25.40;;;14.40;99.90;;;;;;5042799;28;20061;-71
2021/10/19 08:46:14;;;;;;;32.67;28.42;;;14.40;99.90;;;;;;5027487;28;20327;-71
2021/10/19 08:48:41;;;;;;;32.40;26.60;;;14.40;99.90;;;;;;5025883;28;20496;-70
2021/10/19 08:51:08;;;;;;;33.13;27.77;;;14.40;99.90;;;;;;5054807;28;20535;-71
2021/10/19 08:53:39;;;;;;;33.97;28.83;;;14.50;99.90;;;;;;5049231;28;20049;-71
2021/10/19 08:56:06;;;;;;;32.75;26.52;;;14.50;99.90;;;;;;5049899;28;20457;-70
2021/10/19 08:58:35;;;;;;;32.35;27.98;;;14.50;99.90;;;;;;5057199;28;20049;-70
2021/10/19 09:01:05;;;;;;;35.37;27.77;;;14.50;99.90;;;;;;5032523;28;20094;-71
2021/10/19 09:03:34;;;;;;;;;;;14.50;99.90;;;;;;5033588;28;20059;-71
2021/10/19 09:06:04;;;;;;;33.45;26.55;;;14.40;99.90;;;;;;5056355;28;20007;-71
2021/10/19 09:08:29;;;;;;;32.97;26.70;;;14.50;99.90;;;;;;5034728;28;20435;-70
2021/10/19 09:10:55;;;;;;;32.45;26.33;;;14.50;99.90;;;;;;5034514;28;20052;-71
2021/10/19 09:13:21;;;;;;;31.10;25.83;;;14.60;99.90;;;;;;5034023;28;20798;-72
2021/10/19 09:15:49;;;;;;;28.25;24.60;;;14.60;99.90;;;;;;5034733;28;20044;-72
2021/10/19 09:18:21;;;;;;;29.40;24.25;;;14.60;99.90;;;;;;5033230;28;20059;-72
2021/10/19 09:20:53;;;;;;;27.92;24.00;;;14.60;99.90;;;;;;5050959;28;20041;-73
2021/10/19 09:23:21;;;;;;;27.83;23.90;;;14.60;99.90;;;;;;5049645;28;20127;-71
2021/10/19 09:25:52;;;;;;;28.50;23.80;;;14.60;99.90;;;;;;5049278;28;20565;-72
2021/10/19 09:28:38;;;;;;;28.50;23.65;;;14.70;99.90;;;;;;5050202;28;20432;-72
2021/10/19 09:31:05;;;;;;;29.08;23.02;;;14.70;99.90;;;;;;5050986;28;20071;-72
2021/10/19 09:33:31;;;;;;;30.35;23.83;;;14.80;99.90;;;;;;5051653;28;20135;-72
2021/10/19 09:36:03;;;;;;;28.85;22.98;;;14.80;99.90;;;;;;5034752;28;20051;-72
2021/10/19 09:38:29;;;;;;;29.15;22.90;;;14.80;99.90;;;;;;5051635;28;20101;-71
2021/10/19 09:40:57;;;;;;;29.48;23.00;;;14.80;99.90;;;;;;5031407;28;20040;-72
2021/10/19 09:43:29;;;;;;;30.27;23.23;;;14.80;99.90;;;;;;5050219;28;20041;-72
2021/10/19 09:45:58;;;;;;;27.52;23.15;;;14.90;99.90;;;;;;5050487;28;20549;-71
2021/10/19 09:48:33;;;;;;;31.65;24.27;;;14.90;99.90;;;;;;5033677;28;20072;-72
2021/10/19 09:51:00;;;;;;;28.88;22.65;;;14.90;99.90;;;;;;5050251;28;20521;-71
2021/10/19 09:53:28;;;;;;;30.33;22.92;;;15.00;99.90;;;;;;5033368;28;20043;-72
2021/10/19 09:55:55;;;;;;;28.20;21.13;;;15.00;99.90;;;;;;5050414;28;20049;-72
2021/10/19 09:58:25;;;;;;;30.25;22.13;;;15.10;99.90;;;;;;5050103;28;20054;-72
2021/10/19 10:00:52;;;;;;;28.15;22.98;;;15.10;99.90;;;;;;5048290;28;20080;-72
2021/10/19 10:03:18;;;;;;;30.02;22.52;;;15.20;99.90;;;;;;5032856;28;20051;-72
2021/10/19 10:05:44;;;;;;;27.58;20.60;;;15.20;99.90;;;;;;5049239;28;20647;-71
2021/10/19 10:08:18;;;;;;;22.98;19.90;;;15.20;99.90;;;;;;5031473;28;20044;-72
2021/10/19 10:10:44;;;;;;;24.85;20.55;;;15.30;99.90;;;;;;5033553;28;20499;-71
2021/10/19 10:13:15;;;;;;;25.60;20.50;;;15.30;99.90;;;;;;5033213;28;20105;-72
2021/10/19 10:15:41;;;;;;;26.40;20.67;;;15.30;99.90;;;;;;5033734;28;20088;-71
2021/10/19 10:18:09;;;;;;;24.98;20.00;;;15.40;99.90;;;;;;5033284;28;20079;-72
2021/10/19 10:20:39;;;;;;;25.10;19.83;;;15.40;99.90;;;;;;5049916;28;20510;-72
2021/10/19 10:23:19;;;;;;;22.88;19.13;;;15.40;99.90;;;;;;5032884;28;20072;-72
2021/10/19 10:25:46;;;;;;;22.17;18.17;;;15.40;99.90;;;;;;5065271;28;20052;-72
2021/10/19 10:28:38;;;;;;;19.50;17.20;;;15.50;99.90;;;;;;5049712;28;20051;-72
2021/10/19 10:31:17;;;;;;;18.95;16.52;;;15.50;99.90;;;;;;5025895;28;20102;-72
2021/10/19 10:33:44;;;;;;;21.48;17.45;;;15.60;99.90;;;;;;5049682;28;20051;-72
2021/10/19 10:36:15;;;;;;;21.55;17.52;;;15.60;99.90;;;;;;5047720;28;20556;-72
2021/10/19 10:38:57;;;;;;;19.67;16.20;;;15.60;99.90;;;;;;5032923;28;20132;-72
2021/10/19 10:41:23;;;;;;;21.90;17.38;;;15.60;99.90;;;;;;5029362;28;20052;-72
2021/10/19 10:44:01;;;;;;;19.73;16.10;;;15.60;99.90;;;;;;5048297;28;20490;-72
2021/10/19 10:46:27;;;;;;;19.98;17.30;;;15.60;99.90;;;;;;5028337;28;20721;-72
2021/10/19 10:48:56;;;;;;;20.40;17.48;;;15.70;99.90;;;;;;5026681;28;20052;-73
2021/10/19 10:51:30;;;;;;;20.25;16.35;;;15.70;99.90;;;;;;5030417;28;20040;-72
2021/10/19 10:53:56;;;;;;;19.23;16.60;;;15.70;99.90;;;;;;5043791;28;20048;-72
2021/10/19 10:56:23;;;;;;;18.30;15.30;;;15.70;99.90;;;;;;5031104;28;20415;-73
2021/10/19 10:58:50;;;;;;;25.58;17.40;;;15.80;99.90;;;;;;5042291;28;20052;-72
2021/10/19 11:01:22;;;;;;;19.92;17.83;;;15.80;99.90;;;;;;5042923;28;20046;-73
2021/10/19 11:04:01;;;;;;;20.48;17.08;;;15.80;99.90;;;;;;5026980;28;20044;-72
2021/10/19 11:06:27;;;;;;;19.98;16.10;;;15.80;99.90;;;;;;5055644;28;20037;-72
2021/10/19 11:08:58;;;;;;;20.48;17.25;;;15.80;99.90;;;;;;5038808;28;20500;-72
2021/10/19 11:11:24;;;;;;;19.02;16.75;;;15.80;99.90;;;;;;5047565;28;20097;-73
2021/10/19 11:13:58;;;;;;;20.15;16.00;;;15.80;99.90;;;;;;5038152;28;20076;-72
2021/10/19 11:16:41;;;;;;;17.95;15.40;;;15.80;99.90;;;;;;5023120;28;20672;-72
2021/10/19 11:19:17;;;;;;;19.92;16.67;;;15.80;99.90;;;;;;5067633;28;20044;-72
2021/10/19 11:21:44;;;;;;;20.10;17.45;;;15.90;99.90;;;;;;5041034;28;20041;-72
2021/10/19 11:24:10;;;;;;;18.77;16.75;;;15.90;99.90;;;;;;5037804;28;20036;-72
2021/10/19 11:26:36;;;;;;;19.60;17.50;;;15.90;99.90;;;;;;5050189;28;20036;-73
2021/10/19 11:29:08;;;;;;;22.83;18.02;;;15.90;99.90;;;;;;5028613;28;20176;-73
2021/10/19 11:31:34;;;;;;;22.83;18.42;;;15.90;99.90;;;;;;5017366;28;20068;-72
2021/10/19 11:34:03;;;;;;;21.02;18.00;;;16.00;99.90;;;;;;4996526;28;20527;-72
2021/10/19 11:36:29;;;;;;;22.77;18.10;;;16.00;99.90;;;;;;5013663;28;20053;-72
2021/10/19 11:38:58;;;;;;;21.95;17.80;;;16.00;99.90;;;;;;5044805;28;20282;-73
2021/10/19 11:41:28;;;;;;;21.63;18.63;;;16.10;99.90;;;;;;5030958;28;20444;-73
2021/10/19 11:43:56;;;;;;;22.65;17.92;;;16.10;99.90;;;;;;5034862;28;20047;-73
2021/10/19 11:46:25;;;;;;;23.73;19.10;;;16.10;99.90;;;;;;5074834;28;20080;-73
2021/10/19 11:48:53;;;;;;;23.98;18.75;;;16.10;99.90;;;;;;5050070;28;20414;-72
2021/10/19 11:51:23;;;;;;;22.50;18.88;;;16.10;99.90;;;;;;5032057;28;20050;-73
2021/10/19 11:53:50;;;;;;;23.75;19.35;;;16.20;99.90;;;;;;5049096;28;20131;-72
2021/10/19 11:56:21;;;;;;;24.63;18.38;;;16.20;99.90;;;;;;5037503;28;20036;-72
2021/10/19 11:59:02;;;;;;;23.20;18.50;;;16.20;99.90;;;;;;5047479;28;20048;-73
2021/10/19 12:01:35;;;;;;;21.25;17.48;;;16.30;99.90;;;;;;5048966;28;20040;-72
2021/10/19 12:04:04;;;;;;;19.40;16.63;;;16.30;99.90;;;;;;5040983;28;20036;-72
2021/10/19 12:06:32;;;;;;;22.40;16.55;;;16.30;99.90;;;;;;5049207;28;20048;-72
2021/10/19 12:09:12;;;;;;;18.98;15.75;;;16.30;99.90;;;;;;5033625;28;20054;-73
2021/10/19 12:11:38;;;;;;;21.25;14.40;;;16.40;99.90;;;;;;5048706;28;20067;-72
2021/10/19 12:14:07;;;;;;;21.40;14.98;;;16.40;99.90;;;;;;5038261;28;20136;-72
2021/10/19 12:16:33;;;;;;;20.00;13.93;;;16.40;99.90;;;;;;5023966;28;20415;-72
2021/10/19 12:19:00;;;;;;;18.60;14.35;;;16.40;99.90;;;;;;5023874;28;20039;-72
2021/10/19 12:21:31;;;;;;;19.88;14.90;;;16.50;99.90;;;;;;5051010;28;20075;-72
2021/10/19 12:24:00;;;;;;;18.20;14.30;;;16.50;99.90;;;;;;5037829;28;20032;-72
2021/10/19 12:26:29;;;;;;;20.98;15.85;;;16.60;99.90;;;;;;5031619;28;20735;-72
2021/10/19 12:28:59;;;;;;;20.92;15.20;;;16.70;99.90;;;;;;5056715;28;20040;-73